11 sierpnia 2022

Czas Kod Pogoda Temp. Widoczność Sufit Wiatr METAR/SPECI
19:30
V
30 °C 10 km+ - 080° 080° 17 kt METAR LFMK 111730Z AUTO 08017KT CAVOK 30/23 Q1013 NOSIG
19:00
V
31 °C 10 km+ - 070° 070° 14 kt METAR LFMK 111700Z AUTO 07014KT CAVOK 31/23 Q1013 NOSIG
18:30
V
31 °C 10 km+ - 080° 080° 16 kt METAR LFMK 111630Z AUTO 08016KT CAVOK 31/23 Q1013 NOSIG
18:00
V
32 °C 10 km+ - 080° 080° 15 kt METAR LFMK 111600Z AUTO 08015KT CAVOK 32/22 Q1013 NOSIG
17:30
V
32 °C 10 km+ - 070° 070° 15 kt METAR LFMK 111530Z AUTO 07015KT CAVOK 32/22 Q1013 NOSIG
17:00
V
33 °C 10 km+ - 080° 080° 14 kt METAR LFMK 111500Z AUTO 08014KT 050V110 CAVOK 33/22 Q1013 NOSIG
16:30
V
33 °C 10 km+ - 080° 080° 15 kt METAR LFMK 111430Z AUTO 08015KT 050V110 CAVOK 33/22 Q1014 NOSIG
16:00
V
33 °C 10 km+ - 080° 080° 14 kt METAR LFMK 111400Z AUTO 08014KT 050V120 CAVOK 33/22 Q1014 NOSIG
15:30
V
32 °C 10 km+ - 090° 090° 14 kt METAR LFMK 111330Z AUTO 09014KT 060V140 CAVOK 32/21 Q1014 NOSIG
15:00
V
32 °C 10 km+ - 080° 080° 14 kt METAR LFMK 111300Z AUTO 08014KT CAVOK 32/21 Q1015 NOSIG
14:30
V
32 °C 10 km+ - 080° 080° 15 kt METAR LFMK 111230Z AUTO 08015KT CAVOK 32/21 Q1015 NOSIG
14:00
V
32 °C 10 km+ - 080° 080° 14 kt METAR LFMK 111200Z AUTO 08014KT CAVOK 32/22 Q1015 NOSIG
13:30
V
31 °C 10 km+ - 080° 080° 15 kt METAR LFMK 111130Z AUTO 08015KT CAVOK 31/21 Q1015 NOSIG
13:00
V
30 °C 10 km+ - 080° 080° 14 kt METAR LFMK 111100Z AUTO 08014KT 060V130 9999 FEW029 30/21 Q1016 NOSIG
12:30
V
30 °C 10 km+ - 080° 080° 15 kt METAR LFMK 111030Z AUTO 08015KT 050V130 CAVOK 30/22 Q1016 NOSIG
12:00
V
30 °C 10 km+ - 080° 080° 15 kt METAR LFMK 111000Z AUTO 08015KT 9999 FEW024 30/22 Q1016 NOSIG
11:30
V
29 °C 10 km+ - 080° 080° 14 kt METAR LFMK 110930Z AUTO 08014KT 060V130 9999 SCT022 29/21 Q1016 NOSIG
11:00
V
28 °C 10 km+ - 090° 090° 11 kt METAR LFMK 110900Z AUTO 09011KT 070V140 9999 SCT020 SCT130 28/22 Q1016 NOSIG
10:30
M
27 °C 10 km+ 2.900 ft 080° 080° 12 kt METAR LFMK 110830Z AUTO 08012KT 060V120 9999 SCT017 BKN029 BKN130 27/22 Q1016 NOSIG
10:00
M
26 °C 10 km+ 2.800 ft 090° 090° 10 kt METAR LFMK 110800Z AUTO 09010KT 060V130 9999 FEW016 OVC028 26/22 Q1016 NOSIG
09:30
M
26 °C 10 km+ 2.700 ft 080° 080° 10 kt METAR LFMK 110730Z AUTO 08010KT 060V140 9999 OVC027 26/22 Q1017 NOSIG
09:00
M
25 °C 10 km+ 2.500 ft 090° 090° 11 kt METAR LFMK 110700Z AUTO 09011KT 060V120 9999 OVC025 25/22 Q1016 NOSIG
08:30
M
25 °C 10 km+ 2.400 ft 090° 090° 10 kt METAR LFMK 110630Z AUTO 09010KT 060V120 9999 FEW011 OVC024 25/22 Q1016 NOSIG
08:00
M
24 °C 10 km+ 2.200 ft 080° 080° 10 kt METAR LFMK 110600Z AUTO 08010KT 9999 FEW011 OVC022 24/22 Q1016 NOSIG
07:30
M
24 °C 10 km+ 2.200 ft 080° 080° 11 kt METAR LFMK 110530Z AUTO 08011KT 9999 OVC022 24/22 Q1016 NOSIG
07:00
M
24 °C 10 km+ 2.000 ft 090° 090° 10 kt METAR LFMK 110500Z AUTO 09010KT 9999 FEW011 OVC020 24/22 Q1016 TEMPO OVC013
06:30
M
24 °C 10 km+ 2.000 ft 090° 090° 8 kt METAR LFMK 110430Z AUTO 09008KT 070V130 9999 SCT011 OVC020 24/22 Q1016 TEMPO OVC013
06:00
M
24 °C 10 km+ 2.000 ft 090° 090° 10 kt METAR LFMK 110400Z AUTO 09010KT 060V120 9999 SCT012 OVC020 24/21 Q1015 TEMPO OVC013
05:30
M
24 °C 10 km+ 2.000 ft 090° 090° 11 kt METAR LFMK 110330Z AUTO 09011KT 9999 FEW012 OVC020 24/22 Q1015 TEMPO OVC013
05:00
M
24 °C 10 km+ 2.000 ft 090° 090° 7 kt METAR LFMK 110300Z AUTO 09007KT 050V130 9999 OVC020 24/22 Q1016
04:30
M
24 °C 10 km+ 1.900 ft 090° 090° 8 kt METAR LFMK 110230Z AUTO 09008KT 060V130 9999 OVC019 24/22 Q1015
04:00
M
24 °C 10 km+ 1.700 ft 090° 090° 10 kt METAR LFMK 110200Z AUTO 09010KT 070V130 9999 OVC017 24/22 Q1015
03:30
M
24 °C 10 km+ 1.400 ft 090° 090° 10 kt METAR LFMK 110130Z AUTO 09010KT 9999 OVC014 24/22 Q1015
03:00
M
24 °C 10 km+ 1.200 ft 080° 080° 10 kt METAR LFMK 110100Z AUTO 08010KT 9999 OVC012 24/22 Q1015
02:30
M
24 °C 10 km+ 1.400 ft 080° 080° 11 kt METAR LFMK 110030Z AUTO 08011KT 9999 FEW008 OVC014 24/22 Q1015
02:00
M
24 °C 10 km+ 1.000 ft 090° 090° 9 kt METAR LFMK 110000Z AUTO 09009KT 9999 BKN010 OVC014 24/22 Q1015
01:30
I
24 °C 10 km+ 900 ft 090° 090° 9 kt METAR LFMK 102330Z AUTO 09009KT 060V120 9999 BKN009 24/22 Q1015
01:00
V
24 °C 10 km+ - 090° 090° 9 kt METAR LFMK 102300Z AUTO 09009KT 070V130 9999 FEW008 24/22 Q1015
00:30
V
25 °C 10 km+ - 090° 090° 7 kt METAR LFMK 102230Z AUTO 09007KT 060V130 CAVOK 25/21 Q1015
00:00
V
25 °C 10 km+ - 090° 090° 7 kt METAR LFMK 102200Z AUTO 09007KT 070V130 CAVOK 25/21 Q1015

10 sierpnia 2022

Czas Kod Pogoda Temp. Widoczność Sufit Wiatr METAR/SPECI
23:30
V
25 °C 10 km+ - 090° 090° 8 kt METAR LFMK 102130Z AUTO 09008KT 070V140 CAVOK 25/21 Q1015
23:00
V
26 °C 10 km+ - 090° 090° 7 kt METAR LFMK 102100Z AUTO 09007KT 060V130 CAVOK 26/20 Q1015
22:30
V
26 °C 10 km+ - 080° 080° 10 kt METAR LFMK 102030Z AUTO 08010KT CAVOK 26/20 Q1015
22:00
V
26 °C 10 km+ - 070° 070° 10 kt METAR LFMK 102000Z AUTO 07010KT CAVOK 26/21 Q1015
21:30
V
27 °C 10 km+ - 070° 070° 12 kt METAR LFMK 101930Z AUTO 07012KT CAVOK 27/21 Q1015
21:00
V
27 °C 10 km+ - 080° 080° 10 kt METAR LFMK 101900Z AUTO 08010KT CAVOK 27/21 Q1015
20:30
V
28 °C 10 km+ - 070° 070° 14 kt METAR LFMK 101830Z AUTO 07014KT CAVOK 28/20 Q1015 NOSIG
20:00
V
29 °C 10 km+ - 070° 070° 14 kt METAR LFMK 101800Z AUTO 07014KT CAVOK 29/18 Q1014 NOSIG
19:30
V
30 °C 10 km+ - 070° 070° 15 kt METAR LFMK 101730Z AUTO 07015KT CAVOK 30/19 Q1014 NOSIG
19:00
V
32 °C 10 km+ - 070° 070° 14 kt METAR LFMK 101700Z AUTO 07014KT 040V100 CAVOK 32/19 Q1014 NOSIG
18:30
V
32 °C 10 km+ - 080° 080° 14 kt METAR LFMK 101630Z AUTO 08014KT CAVOK 32/19 Q1014 NOSIG
18:00
V
33 °C 10 km+ - 080° 080° 13 kt METAR LFMK 101600Z AUTO 08013KT 060V120 CAVOK 33/18 Q1014 NOSIG
17:30
V
34 °C 10 km+ - 080° 080° 14 kt METAR LFMK 101530Z AUTO 08014KT 050V110 CAVOK 34/16 Q1014 NOSIG
17:00
V
35 °C 10 km+ - 080° 080° 14 kt METAR LFMK 101500Z AUTO 08014KT CAVOK 35/15 Q1014 NOSIG
16:30
V
35 °C 10 km+ - 080° 080° 15 kt METAR LFMK 101430Z AUTO 08015KT CAVOK 35/14 Q1015 NOSIG
16:00
V
35 °C 10 km+ - 080° 080° 14 kt METAR LFMK 101400Z AUTO 08014KT 040V130 CAVOK 35/14 Q1015 NOSIG
15:30
V
34 °C 10 km+ - 080° 080° 13 kt METAR LFMK 101330Z AUTO 08013KT 060V120 CAVOK 34/15 Q1015 NOSIG
15:00
V
35 °C 10 km+ - 070° 070° 13 kt METAR LFMK 101300Z AUTO 07013KT 050V110 CAVOK 35/16 Q1015 NOSIG
14:30
V
35 °C 10 km+ - 080° 080° 14 kt METAR LFMK 101230Z AUTO 08014KT CAVOK 35/16 Q1015 NOSIG
14:00
V
35 °C 10 km+ - 080° 080° 13 kt METAR LFMK 101200Z AUTO 08013KT CAVOK 35/16 Q1016 NOSIG
13:30
V
34 °C 10 km+ - 070° 070° 14 kt METAR LFMK 101130Z AUTO 07014KT 050V110 CAVOK 34/15 Q1016 NOSIG
13:00
V
33 °C 10 km+ - 090° 090° 12 kt METAR LFMK 101100Z AUTO 09012KT 060V120 CAVOK 33/13 Q1016 NOSIG
12:30
V
33 °C 10 km+ - 070° 070° 13 kt METAR LFMK 101030Z AUTO 07013KT CAVOK 33/12 Q1016 NOSIG
12:00
V
32 °C 10 km+ - 090° 090° 10 kt METAR LFMK 101000Z AUTO 09010KT 060V150 CAVOK 32/13 Q1017 TEMPO 10020KT
11:30
V
31 °C 10 km+ - 090° 090° 12 kt METAR LFMK 100930Z AUTO 09012KT 060V130 CAVOK 31/13 Q1017 NOSIG
11:00
V
30 °C 10 km+ - 080° 080° 10 kt METAR LFMK 100900Z AUTO 08010KT 060V120 CAVOK 30/14 Q1017 NOSIG
10:30
V
29 °C 10 km+ - 080° 080° 10 kt METAR LFMK 100830Z AUTO 08010KT CAVOK 29/15 Q1017 NOSIG
10:00
V
27 °C 10 km+ - 090° 090° 6 kt METAR LFMK 100800Z AUTO 09006KT 060V130 CAVOK 27/16 Q1017 NOSIG
09:30
V
26 °C 10 km+ - Var Var 2 kt METAR LFMK 100730Z AUTO VRB02KT CAVOK 26/14 Q1017 NOSIG
09:00
V
24 °C 10 km+ - Var Var 1 kt METAR LFMK 100700Z AUTO VRB01KT CAVOK 24/13 Q1017 NOSIG
08:30
V
23 °C 10 km+ - Var Var 1 kt METAR LFMK 100630Z AUTO VRB01KT CAVOK 23/13 Q1017 NOSIG
08:00
V
20 °C 10 km+ - Var 000° 0 kt METAR LFMK 100600Z AUTO 00000KT CAVOK 20/13 Q1017 BECMG 09010KT
07:30
V
17 °C 10 km+ - Var 000° 0 kt METAR LFMK 100530Z AUTO 00000KT CAVOK 17/12 Q1017 BECMG 09010KT
07:00
V
17 °C 10 km+ - 170° 170° 2 kt METAR LFMK 100500Z AUTO 17002KT CAVOK 17/12 Q1017 NOSIG
06:30
V
16 °C 10 km+ - Var Var 2 kt METAR LFMK 100430Z AUTO VRB02KT CAVOK 16/11 Q1017 NOSIG
06:00
V
16 °C 10 km+ - 030° 030° 1 kt METAR LFMK 100400Z AUTO 03001KT CAVOK 16/11 Q1017 NOSIG
05:30
V
17 °C 10 km+ - Var Var 1 kt METAR LFMK 100330Z AUTO VRB01KT CAVOK 17/11 Q1017 NOSIG
05:00
V
17 °C 10 km+ - Var Var 2 kt METAR LFMK 100300Z AUTO VRB02KT CAVOK 17/12 Q1017 NOSIG
04:30
V
18 °C 10 km+ - 170° 170° 1 kt METAR LFMK 100230Z AUTO 17001KT CAVOK 18/12 Q1017
04:00
V
19 °C 10 km+ - Var Var 2 kt METAR LFMK 100200Z AUTO VRB02KT CAVOK 19/12 Q1017
03:30
V
19 °C 10 km+ - Var Var 2 kt METAR LFMK 100130Z AUTO VRB02KT CAVOK 19/12 Q1016
03:00
V
19 °C 10 km+ - Var Var 2 kt METAR LFMK 100100Z AUTO VRB02KT CAVOK 19/12 Q1016
02:30
V
19 °C 10 km+ - Var 000° 0 kt METAR LFMK 100030Z AUTO 00000KT CAVOK 19/12 Q1017
02:00
V
20 °C 10 km+ - Var Var 1 kt METAR LFMK 100000Z AUTO VRB01KT CAVOK 20/12 Q1017
01:30
V
21 °C 10 km+ - 180° 180° 2 kt METAR LFMK 092330Z AUTO 18002KT CAVOK 21/12 Q1017
01:00
V
20 °C 10 km+ - Var 000° 0 kt METAR LFMK 092300Z AUTO 00000KT CAVOK 20/12 Q1017
00:30
V
22 °C 10 km+ - Var Var 2 kt METAR LFMK 092230Z AUTO VRB02KT CAVOK 22/12 Q1016
00:00
V
22 °C 10 km+ - Var Var 2 kt METAR LFMK 092200Z AUTO VRB02KT CAVOK 22/12 Q1016

9 sierpnia 2022

Czas Kod Pogoda Temp. Widoczność Sufit Wiatr METAR/SPECI
23:30
V
24 °C 10 km+ - Var 000° 0 kt METAR LFMK 092130Z AUTO 00000KT CAVOK 24/12 Q1016
23:00
V
25 °C 10 km+ - Var Var 2 kt METAR LFMK 092100Z AUTO VRB02KT CAVOK 25/12 Q1016
22:30
V
28 °C 10 km+ - Var Var 2 kt METAR LFMK 092030Z AUTO VRB02KT CAVOK 28/12 Q1016
22:00
V
30 °C 10 km+ - 110° 110° 4 kt METAR LFMK 092000Z AUTO 11004KT 080V160 CAVOK 30/12 Q1016
21:30
V
30 °C 10 km+ - 090° 090° 3 kt METAR LFMK 091930Z AUTO 09003KT 060V130 CAVOK 30/11 Q1016
21:00
V
31 °C 10 km+ - 250° 250° 3 kt METAR LFMK 091900Z AUTO 25003KT CAVOK 31/10 Q1016
20:30
V
33 °C 10 km+ - 300° 300° 4 kt METAR LFMK 091830Z AUTO 30004KT CAVOK 33/09 Q1016
20:00
V
33 °C 10 km+ - 260° 260° 4 kt METAR LFMK 091800Z AUTO 26004KT CAVOK 33/08 Q1015 NOSIG
19:30
V
34 °C 10 km+ - 270° 270° 6 kt METAR LFMK 091730Z AUTO 27006KT CAVOK 34/07 Q1015 NOSIG
19:00
V
35 °C 10 km+ - 260° 260° 6 kt METAR LFMK 091700Z AUTO 26006KT 220V290 CAVOK 35/08 Q1015 NOSIG
18:30
V
35 °C 10 km+ - 260° 260° 6 kt METAR LFMK 091630Z AUTO 26006KT 230V290 CAVOK 35/07 Q1015 NOSIG
18:00
V
35 °C 10 km+ - 270° 270° 5 kt METAR LFMK 091600Z AUTO 27005KT 230V290 CAVOK 35/07 Q1015 NOSIG
17:30
V
35 °C 10 km+ - 260° 260° 7 kt METAR LFMK 091530Z AUTO 26007KT 190V290 CAVOK 35/06 Q1016 NOSIG
17:00
V
37 °C 10 km+ - 270° 270° 7 kt METAR LFMK 091500Z AUTO 27007KT 220V310 CAVOK 37/04 Q1016 NOSIG
Starsze dane

My i osoby trzecie śledzimy twoje zachowanie w internecie na naszej stronie za pomocą plików cookie. Jeśli kontynuujesz, zakładamy, że zgadzasz się z naszą polityką plików cookie. Dowiedz się więcej